createdAt,value
2023-04-09T00:01:55.706Z,4.05
2023-04-09T00:04:58.232Z,4.06
2023-04-09T00:08:01.405Z,4.02
2023-04-09T00:11:04.438Z,3.95
2023-04-09T00:14:07.322Z,3.92
2023-04-09T00:17:10.041Z,4.01
2023-04-09T00:20:13.004Z,3.97
2023-04-09T00:23:15.857Z,3.95
2023-04-09T00:26:18.995Z,3.97
2023-04-09T00:29:22.233Z,3.99
2023-04-09T00:32:25.174Z,3.93
2023-04-09T00:35:27.719Z,3.99
2023-04-09T00:38:31.109Z,3.99
2023-04-09T00:41:33.976Z,4.02
2023-04-09T00:44:36.777Z,4.00
2023-04-09T00:47:39.705Z,4.07
2023-04-09T00:50:43.446Z,4.09
2023-04-09T00:53:46.712Z,4.08
2023-04-09T00:56:49.369Z,4.04
2023-04-09T00:59:52.809Z,4.05
2023-04-09T01:03:01.173Z,4.00
2023-04-09T01:06:11.342Z,4.02
2023-04-09T01:09:41.832Z,4.02
2023-04-09T01:13:00.478Z,3.99
2023-04-09T01:16:04.179Z,3.93
2023-04-09T01:19:26.960Z,3.77
2023-04-09T01:23:06.761Z,3.89
2023-04-09T01:26:30.926Z,3.93
2023-04-09T01:29:39.461Z,3.78
2023-04-09T01:32:43.891Z,3.81
2023-04-09T01:35:49.191Z,3.78
2023-04-09T01:38:53.322Z,3.85
2023-04-09T01:41:58.100Z,3.74
2023-04-09T01:45:01.897Z,3.64
2023-04-09T01:48:05.784Z,3.59
2023-04-09T01:51:08.924Z,3.53
2023-04-09T01:54:11.736Z,3.44
2023-04-09T01:57:14.344Z,3.49
2023-04-09T02:00:17.408Z,3.52
2023-04-09T02:03:26.989Z,3.57
2023-04-09T02:06:48.706Z,3.51
2023-04-09T02:09:54.465Z,3.47
2023-04-09T02:13:00.182Z,3.49
2023-04-09T02:16:04.017Z,3.41
2023-04-09T02:19:06.930Z,3.46
2023-04-09T02:22:09.881Z,3.46
2023-04-09T02:25:13.162Z,3.49
2023-04-09T02:28:16.457Z,3.56
2023-04-09T02:31:19.553Z,3.58
2023-04-09T02:34:22.947Z,3.56
2023-04-09T02:37:25.988Z,3.44
2023-04-09T02:40:28.596Z,3.41
2023-04-09T02:43:31.578Z,3.35
2023-04-09T02:46:34.476Z,3.39
2023-04-09T02:49:37.178Z,3.46
2023-04-09T02:52:40.160Z,3.46
2023-04-09T02:55:42.821Z,3.52
2023-04-09T02:58:45.793Z,3.53
2023-04-09T03:01:48.957Z,3.53
2023-04-09T03:04:53.053Z,3.53
2023-04-09T03:07:57.236Z,3.63
2023-04-09T03:11:00.717Z,3.60
2023-04-09T03:14:03.588Z,3.62
2023-04-09T03:17:06.228Z,3.57
2023-04-09T03:20:09.457Z,3.52
2023-04-09T03:23:14.554Z,3.58
2023-04-09T03:26:21.857Z,3.47
2023-04-09T03:29:26.263Z,3.48
2023-04-09T03:32:29.443Z,3.56
2023-04-09T03:35:32.209Z,3.53
2023-04-09T03:38:36.825Z,3.52
2023-04-09T03:41:45.593Z,3.55
2023-04-09T03:44:54.047Z,3.49
2023-04-09T03:48:09.654Z,3.54
2023-04-09T03:51:14.370Z,3.54
2023-04-09T03:54:23.007Z,3.54
2023-04-09T03:57:27.806Z,3.52
2023-04-09T04:00:31.781Z,3.53
2023-04-09T04:03:54.871Z,3.54
2023-04-09T04:06:59.794Z,3.58
2023-04-09T04:10:09.970Z,3.62
2023-04-09T04:13:15.724Z,3.56
2023-04-09T04:16:26.200Z,3.50
2023-04-09T04:19:30.591Z,3.57
2023-04-09T04:22:34.914Z,3.65
2023-04-09T04:25:42.838Z,3.68
2023-04-09T04:28:49.145Z,3.70
2023-04-09T04:32:03.073Z,3.71
2023-04-09T04:35:11.990Z,3.74
2023-04-09T04:38:15.949Z,3.78
2023-04-09T04:41:18.914Z,3.84
2023-04-09T04:44:28.776Z,3.88
2023-04-09T04:47:51.320Z,3.86
2023-04-09T04:51:05.951Z,3.91
2023-04-09T04:54:16.072Z,3.97
2023-04-09T04:57:25.574Z,4.04
2023-04-09T05:00:29.469Z,4.15
2023-04-09T05:03:36.983Z,4.11
2023-04-09T05:06:52.925Z,4.14
2023-04-09T05:09:58.950Z,4.13
2023-04-09T05:13:04.801Z,4.21
2023-04-09T05:16:20.799Z,4.26
2023-04-09T05:19:29.561Z,4.36
2023-04-09T05:22:36.468Z,4.38
2023-04-09T05:25:40.040Z,4.43
2023-04-09T05:28:48.895Z,4.39
2023-04-09T05:31:55.082Z,4.43
2023-04-09T05:35:11.381Z,4.43
2023-04-09T05:38:18.980Z,4.45
2023-04-09T05:41:28.970Z,4.51
2023-04-09T05:44:53.728Z,4.59
2023-04-09T05:47:57.297Z,4.67
2023-04-09T05:51:01.104Z,4.78
2023-04-09T05:54:04.778Z,4.86
2023-04-09T05:57:11.946Z,4.87
2023-04-09T06:00:18.521Z,5.01
2023-04-09T06:03:23.110Z,5.01
2023-04-09T06:06:26.336Z,5.10
2023-04-09T06:09:29.605Z,5.24
2023-04-09T06:12:35.309Z,5.30
2023-04-09T06:15:39.629Z,5.33
2023-04-09T06:18:42.603Z,5.40
2023-04-09T06:21:45.564Z,5.40
2023-04-09T06:24:48.483Z,5.48
2023-04-09T06:27:51.258Z,5.54
2023-04-09T06:30:55.317Z,5.73
2023-04-09T06:33:58.201Z,5.79
2023-04-09T06:37:00.831Z,5.90
2023-04-09T06:40:03.761Z,6.01
2023-04-09T06:43:06.589Z,6.09
2023-04-09T06:46:20.616Z,6.16
2023-04-09T06:49:23.202Z,6.18
2023-04-09T06:52:26.213Z,6.20
2023-04-09T06:55:29.168Z,6.34
2023-04-09T06:58:31.983Z,6.42
2023-04-09T07:01:35.870Z,6.54
2023-04-09T07:04:38.905Z,6.59
2023-04-09T07:07:41.463Z,6.65
2023-04-09T07:10:47.561Z,6.69
2023-04-09T07:13:50.552Z,6.74
2023-04-09T07:16:53.407Z,6.89
2023-04-09T07:19:56.521Z,7.03
2023-04-09T07:22:59.809Z,7.14
2023-04-09T07:26:04.529Z,7.35
2023-04-09T07:29:08.158Z,7.49
2023-04-09T07:32:10.868Z,7.65
2023-04-09T07:35:13.772Z,7.94
2023-04-09T07:38:16.802Z,8.35
2023-04-09T07:41:19.788Z,8.48
2023-04-09T07:44:22.441Z,8.38
2023-04-09T07:47:25.460Z,8.76
2023-04-09T07:50:28.182Z,8.69
2023-04-09T07:53:31.142Z,8.89
2023-04-09T07:56:33.868Z,8.99
2023-04-09T07:59:36.799Z,9.30
2023-04-09T08:02:39.981Z,9.33
2023-04-09T08:05:43.284Z,9.38
2023-04-09T08:08:46.236Z,9.55
2023-04-09T08:11:49.737Z,9.69
2023-04-09T08:14:52.714Z,9.90
2023-04-09T08:17:55.746Z,9.68
2023-04-09T08:20:58.650Z,10.06
2023-04-09T08:24:04.624Z,10.33
2023-04-09T08:27:07.348Z,10.55
2023-04-09T08:30:10.743Z,10.42
2023-04-09T08:33:14.018Z,10.57
2023-04-09T08:36:16.984Z,10.50
2023-04-09T08:39:20.755Z,10.11
2023-04-09T08:42:26.423Z,10.19
2023-04-09T08:45:29.404Z,10.20
2023-04-09T08:48:32.582Z,10.06
2023-04-09T08:51:35.286Z,10.15
2023-04-09T08:54:38.472Z,10.13
2023-04-09T08:57:41.540Z,10.31
2023-04-09T09:00:44.951Z,10.52
2023-04-09T09:04:04.645Z,10.69
2023-04-09T09:07:07.597Z,11.14
2023-04-09T09:10:10.517Z,11.24
2023-04-09T09:13:24.420Z,11.51
2023-04-09T09:16:27.594Z,11.48
2023-04-09T09:19:33.694Z,11.36
2023-04-09T09:22:55.255Z,11.52
2023-04-09T09:25:58.477Z,11.58
2023-04-09T09:29:04.148Z,12.22
2023-04-09T09:32:13.913Z,12.55
2023-04-09T09:35:16.627Z,12.75
2023-04-09T09:38:19.350Z,12.75
2023-04-09T09:41:22.388Z,12.01
2023-04-09T09:44:33.228Z,11.82
2023-04-09T09:47:36.550Z,12.48
2023-04-09T09:50:42.205Z,13.13
2023-04-09T09:53:47.134Z,13.50
2023-04-09T09:56:53.170Z,13.82
2023-04-09T10:00:04.249Z,13.85
2023-04-09T10:03:20.393Z,14.67
2023-04-09T10:06:23.976Z,14.93
2023-04-09T10:09:28.378Z,14.74
2023-04-09T10:12:31.440Z,15.59
2023-04-09T10:15:34.140Z,15.26
2023-04-09T10:18:37.010Z,15.71
2023-04-09T10:21:54.959Z,15.57
2023-04-09T10:24:58.188Z,15.54
2023-04-09T10:28:02.465Z,15.68
2023-04-09T10:31:08.829Z,16.81
2023-04-09T10:34:11.569Z,17.40
2023-04-09T10:37:17.009Z,17.42
2023-04-09T10:40:22.627Z,17.50
2023-04-09T10:43:25.409Z,16.51
2023-04-09T10:46:34.957Z,17.39
2023-04-09T10:49:39.775Z,17.81
2023-04-09T10:52:42.765Z,17.25
2023-04-09T10:55:50.414Z,17.55
2023-04-09T10:58:54.233Z,17.32
2023-04-09T11:01:57.196Z,16.62
2023-04-09T11:05:18.376Z,16.76
2023-04-09T11:08:22.367Z,17.60
2023-04-09T11:11:28.575Z,16.11
2023-04-09T11:14:33.463Z,15.67
2023-04-09T11:17:37.138Z,15.88
2023-04-09T11:20:40.337Z,15.41
2023-04-09T11:23:51.469Z,14.45
2023-04-09T11:26:54.835Z,13.64
2023-04-09T11:29:57.572Z,12.88
2023-04-09T11:33:01.159Z,12.46
2023-04-09T11:36:06.884Z,12.30
2023-04-09T11:39:09.542Z,12.62
2023-04-09T11:42:15.729Z,12.86
2023-04-09T11:45:19.176Z,13.18
2023-04-09T11:48:24.007Z,13.35
2023-04-09T11:51:27.460Z,13.08
2023-04-09T11:54:36.750Z,13.35
2023-04-09T11:57:48.324Z,13.19
2023-04-09T12:01:01.026Z,13.51
2023-04-09T12:04:05.645Z,13.06
2023-04-09T12:07:09.457Z,13.33
2023-04-09T12:10:12.630Z,13.63
2023-04-09T12:13:16.949Z,13.66
2023-04-09T12:16:21.358Z,13.60
2023-04-09T12:19:26.041Z,13.46
2023-04-09T12:22:28.500Z,13.44
2023-04-09T12:25:32.884Z,13.33
2023-04-09T12:28:35.776Z,13.07
2023-04-09T12:31:38.780Z,13.06
2023-04-09T12:34:41.606Z,12.46
2023-04-09T12:37:44.999Z,12.30
2023-04-09T12:40:48.977Z,12.18
2023-04-09T12:43:52.106Z,12.67
2023-04-09T12:47:00.248Z,12.48
2023-04-09T12:50:04.778Z,12.60
2023-04-09T12:53:07.439Z,12.52
2023-04-09T12:56:10.741Z,12.34
2023-04-09T12:59:13.438Z,12.43
2023-04-09T13:02:16.728Z,12.45
2023-04-09T13:05:19.642Z,12.63
2023-04-09T13:08:22.768Z,12.51
2023-04-09T13:11:25.917Z,12.48
2023-04-09T13:14:28.848Z,12.42
2023-04-09T13:17:31.585Z,12.32
2023-04-09T13:20:35.079Z,12.40
2023-04-09T13:23:37.516Z,12.40
2023-04-09T13:26:42.277Z,12.37
2023-04-09T13:29:45.016Z,12.58
2023-04-09T13:32:48.010Z,12.48
2023-04-09T13:35:51.345Z,12.79
2023-04-09T13:38:54.545Z,13.25
2023-04-09T13:41:58.246Z,13.20
2023-04-09T13:45:01.362Z,13.20
2023-04-09T13:48:05.585Z,13.34
2023-04-09T13:51:08.949Z,13.66
2023-04-09T13:54:11.635Z,13.95
2023-04-09T13:57:14.544Z,13.99
2023-04-09T14:00:17.457Z,14.01
2023-04-09T14:03:20.687Z,13.65
2023-04-09T14:06:23.454Z,13.71
2023-04-09T14:09:26.185Z,13.84
2023-04-09T14:12:29.428Z,13.85
2023-04-09T14:15:32.796Z,13.94
2023-04-09T14:18:35.554Z,13.84
2023-04-09T14:21:39.286Z,13.72
2023-04-09T14:24:41.922Z,13.97
2023-04-09T14:27:45.109Z,13.85
2023-04-09T14:30:48.452Z,14.00
2023-04-09T14:33:51.208Z,13.80
2023-04-09T14:36:53.587Z,13.63
2023-04-09T14:39:56.554Z,13.45
2023-04-09T14:43:00.382Z,13.28
2023-04-09T14:46:04.310Z,13.43
2023-04-09T14:49:07.081Z,13.43
2023-04-09T14:52:10.103Z,13.30
2023-04-09T14:55:12.639Z,13.11
2023-04-09T14:58:15.518Z,13.16
2023-04-09T15:01:18.080Z,12.98
2023-04-09T15:04:21.271Z,12.95
2023-04-09T15:07:25.258Z,12.92
2023-04-09T15:10:28.577Z,12.83
2023-04-09T15:13:31.489Z,12.67
2023-04-09T15:16:37.748Z,12.70
2023-04-09T15:19:40.544Z,12.48
2023-04-09T15:22:43.748Z,12.48
2023-04-09T15:25:48.081Z,12.49
2023-04-09T15:28:51.509Z,12.35
2023-04-09T15:31:54.589Z,12.29
2023-04-09T15:34:57.604Z,12.22
2023-04-09T15:38:00.274Z,12.24
2023-04-09T15:41:03.284Z,12.14
2023-04-09T15:44:05.930Z,12.16
2023-04-09T15:47:08.570Z,12.13
2023-04-09T15:50:11.286Z,12.08
2023-04-09T15:53:17.715Z,12.01
2023-04-09T15:56:20.359Z,11.92
2023-04-09T15:59:23.326Z,11.88
2023-04-09T16:02:26.650Z,11.88
2023-04-09T16:05:29.827Z,11.80
2023-04-09T16:08:32.686Z,11.69
2023-04-09T16:11:36.706Z,11.66
2023-04-09T16:14:41.010Z,11.59
2023-04-09T16:17:43.731Z,11.60
2023-04-09T16:20:46.602Z,11.51
2023-04-09T16:23:50.010Z,11.38
2023-04-09T16:26:52.402Z,11.34
2023-04-09T16:29:55.554Z,11.20
2023-04-09T16:32:58.521Z,11.12
2023-04-09T16:36:01.638Z,11.04
2023-04-09T16:39:05.079Z,10.93
2023-04-09T16:42:07.933Z,10.84
2023-04-09T16:45:11.251Z,10.70
2023-04-09T16:48:14.278Z,10.56
2023-04-09T16:51:17.241Z,10.48
2023-04-09T16:54:20.770Z,10.32
2023-04-09T16:57:23.292Z,10.18
2023-04-09T17:00:27.638Z,10.09
2023-04-09T17:03:30.621Z,9.95
2023-04-09T17:06:33.501Z,9.84
2023-04-09T17:09:36.257Z,9.74
2023-04-09T17:12:39.208Z,9.81
2023-04-09T17:15:42.267Z,9.52
2023-04-09T17:18:45.764Z,9.44
2023-04-09T17:21:48.389Z,9.25
2023-04-09T17:24:52.898Z,9.17
2023-04-09T17:27:55.288Z,8.85
2023-04-09T17:30:58.145Z,8.69
2023-04-09T17:34:00.896Z,8.54
2023-04-09T17:37:03.810Z,8.53
2023-04-09T17:40:06.877Z,8.45
2023-04-09T17:43:10.125Z,8.44
2023-04-09T17:46:12.879Z,8.23
2023-04-09T17:49:15.612Z,8.17
2023-04-09T17:52:18.623Z,8.10
2023-04-09T17:55:23.773Z,7.97
2023-04-09T17:58:27.011Z,7.83
2023-04-09T18:01:29.947Z,7.82
2023-04-09T18:04:34.377Z,7.59
2023-04-09T18:07:38.998Z,7.59
2023-04-09T18:10:42.209Z,7.54
2023-04-09T18:13:45.086Z,7.40
2023-04-09T18:16:47.978Z,7.04
2023-04-09T18:19:53.691Z,7.08
2023-04-09T18:22:56.369Z,7.06
2023-04-09T18:25:59.041Z,7.09
2023-04-09T18:29:01.819Z,6.94
2023-04-09T18:32:05.503Z,6.77
2023-04-09T18:35:08.532Z,6.50
2023-04-09T18:38:11.348Z,6.73
2023-04-09T18:41:21.165Z,6.57
2023-04-09T18:44:23.717Z,6.62
2023-04-09T18:47:26.603Z,6.62
2023-04-09T18:50:29.249Z,6.54
2023-04-09T18:53:31.973Z,6.51
2023-04-09T18:56:34.920Z,6.52
2023-04-09T18:59:37.390Z,6.35
2023-04-09T19:02:40.696Z,6.03
2023-04-09T19:05:43.850Z,6.05
2023-04-09T19:08:48.108Z,5.84
2023-04-09T19:11:51.120Z,5.79
2023-04-09T19:14:57.056Z,5.85
2023-04-09T19:18:00.027Z,5.82
2023-04-09T19:21:02.829Z,5.86
2023-04-09T19:24:06.233Z,5.92
2023-04-09T19:27:10.312Z,5.87
2023-04-09T19:30:13.115Z,5.75
2023-04-09T19:33:16.410Z,5.69
2023-04-09T19:36:19.216Z,5.68
2023-04-09T19:39:22.327Z,5.67
2023-04-09T19:42:25.544Z,5.58
2023-04-09T19:45:28.474Z,5.52
2023-04-09T19:48:31.432Z,5.47
2023-04-09T19:51:34.571Z,5.41
2023-04-09T19:54:37.680Z,5.36
2023-04-09T19:57:41.121Z,5.34
2023-04-09T20:00:43.703Z,5.39
2023-04-09T20:03:47.240Z,5.36
2023-04-09T20:06:51.591Z,5.32
2023-04-09T20:09:55.030Z,5.22
2023-04-09T20:12:58.120Z,5.26
2023-04-09T20:16:01.335Z,5.22
2023-04-09T20:19:04.496Z,5.09
2023-04-09T20:22:07.346Z,5.10
2023-04-09T20:25:12.536Z,5.13
2023-04-09T20:28:15.504Z,5.05
2023-04-09T20:31:18.033Z,5.01
2023-04-09T20:34:26.786Z,4.90
2023-04-09T20:37:29.622Z,4.95
2023-04-09T20:40:35.467Z,4.84
2023-04-09T20:43:38.524Z,4.75
2023-04-09T20:46:41.326Z,4.72
2023-04-09T20:49:45.871Z,4.69
2023-04-09T20:52:49.978Z,4.65
2023-04-09T20:55:53.433Z,4.73
2023-04-09T20:58:57.854Z,4.70
2023-04-09T21:02:00.645Z,4.67
2023-04-09T21:05:15.685Z,4.60
2023-04-09T21:08:24.683Z,4.56
2023-04-09T21:11:27.749Z,4.68
2023-04-09T21:14:31.525Z,4.54
2023-04-09T21:17:34.301Z,4.67
2023-04-09T21:20:37.449Z,4.52
2023-04-09T21:23:41.786Z,4.46
2023-04-09T21:26:51.724Z,4.45
2023-04-09T21:29:55.538Z,4.39
2023-04-09T21:33:01.102Z,4.32
2023-04-09T21:36:04.956Z,4.27
2023-04-09T21:39:07.916Z,4.30
2023-04-09T21:42:15.119Z,4.18
2023-04-09T21:45:18.174Z,4.21
2023-04-09T21:48:21.694Z,4.23
2023-04-09T21:51:25.023Z,4.21
2023-04-09T21:54:28.191Z,4.11
2023-04-09T21:57:30.822Z,4.26
2023-04-09T22:00:33.798Z,4.17
2023-04-09T22:03:36.450Z,4.12
2023-04-09T22:06:40.544Z,4.12
2023-04-09T22:09:42.931Z,4.16
2023-04-09T22:12:46.510Z,4.16
2023-04-09T22:15:49.327Z,4.13
2023-04-09T22:18:52.948Z,4.09
2023-04-09T22:21:56.353Z,4.07
2023-04-09T22:24:59.001Z,3.91
2023-04-09T22:28:02.009Z,3.73
2023-04-09T22:31:05.462Z,3.68
2023-04-09T22:34:20.163Z,3.62
2023-04-09T22:37:24.619Z,3.65
2023-04-09T22:40:27.328Z,3.43
2023-04-09T22:43:30.404Z,3.60
2023-04-09T22:46:34.640Z,3.56
2023-04-09T22:49:37.819Z,3.72
2023-04-09T22:52:40.867Z,3.63
2023-04-09T22:55:43.589Z,3.67
2023-04-09T22:58:46.325Z,3.63
2023-04-09T23:01:50.111Z,3.68
2023-04-09T23:04:52.848Z,3.69
2023-04-09T23:07:56.097Z,3.67
2023-04-09T23:10:58.656Z,3.75
2023-04-09T23:14:01.744Z,3.64
2023-04-09T23:17:04.464Z,3.70
2023-04-09T23:20:08.960Z,3.70
2023-04-09T23:23:12.344Z,3.52
2023-04-09T23:26:15.024Z,3.55
2023-04-09T23:29:18.093Z,3.55
2023-04-09T23:32:22.001Z,3.38
2023-04-09T23:35:24.538Z,3.55
2023-04-09T23:38:27.798Z,3.42
2023-04-09T23:41:31.794Z,3.32
2023-04-09T23:44:36.522Z,3.11
2023-04-09T23:47:39.431Z,3.22
2023-04-09T23:50:42.532Z,3.31
2023-04-09T23:53:46.670Z,3.18
2023-04-09T23:56:49.467Z,3.18
2023-04-09T23:59:52.377Z,2.95
